MMVA/VSA METAR and TAF weather

Enter ICAO airport designator
Station Type Date Time Source
MMVA METAR 2020/04/05 10:37 UTC NOAA

MMVA 051037Z 00000KT 5SM SKC 22/22 A2979 RMK HZY RTS


Station Type Date Time Source
MMVA Decoded METAR 2020/04/05 10:37 UTC NOAA

Villahermosa , Mexico (MMVA) 18-00N 092-49W
Apr 05, 2020 - 06:37 AM EDT / 2020.04.05 1037 UTC
Wind: Calm:0
Visibility: 5 mile(s):0
Sky conditions: clear
Temperature: 71 F (22 C)
Dew Point: 71 F (22 C)
Relative Humidity: 100%
Pressure (altimeter): 29.79 in. Hg (1008 hPa)
ob: MMVA 051037Z 00000KT 5SM SKC 22/22 A2979 RMK HZY RTS
cycle: 10

Station Type Date Time Source
MMVA TAF 2020/04/05 06:06 UTC NOAA

TAF MMVA 050504Z 0506/0606 00000KT P6SM SKC
FM051000 00000KT P6SM SCT015
TEMPO 0511/0515 2SM BR BKN010
FM051600 32010KT P6SM BKN015 BKN060
FM060300 34012KT 4SM HZ OVC015

Example: see airport list